Time;durP1;ratioP1;P1;durP2;ratioP2;P2;SDS_P1;SDS_P2;PMS_P1;PMS_P2;Temp;Humidity;BMP_temperature;BMP_pressure;BME280_temperature;BME280_humidity;BME280_pressure;Samples;Min_cycle;Max_cycle;Signal;HPM_P1;HPM_P2
2022/07/19 00:00:13;;;;;;;5.42;2.92;;;;;;;15.54;100.00;99384.69;2158351;81;21026;-85
2022/07/19 00:03:20;;;;;;;3.95;3.37;;;;;;;15.44;100.00;99384.73;2158216;82;21029;-85
2022/07/19 00:06:21;;;;;;;6.70;2.83;;;;;;;15.32;100.00;99387.11;2162798;82;21489;-85
2022/07/19 00:09:21;;;;;;;3.22;2.92;;;;;;;15.23;100.00;99379.03;2156350;82;21018;-85
2022/07/19 00:12:22;;;;;;;3.10;2.80;;;;;;;15.19;100.00;99378.61;2156263;81;21041;-85
2022/07/19 00:15:23;;;;;;;3.62;2.65;;;;;;;15.17;100.00;99380.61;2152886;81;21032;-85
2022/07/19 00:18:24;;;;;;;5.12;2.62;;;;;;;15.18;100.00;99382.27;2159918;81;21006;-86
2022/07/19 00:21:24;;;;;;;3.33;2.87;;;;;;;15.19;100.00;99385.21;2163130;81;21077;-85
2022/07/19 00:24:25;;;;;;;2.22;2.02;;;;;;;15.22;100.00;99386.13;2162904;82;20947;-85
2022/07/19 00:27:26;;;;;;;5.35;2.70;;;;;;;15.29;100.00;99385.67;2160060;82;21014;-85
2022/07/19 00:30:26;;;;;;;5.40;2.17;;;;;;;15.39;100.00;99384.02;2156300;82;21009;-85
2022/07/19 00:33:27;;;;;;;3.37;3.08;;;;;;;15.48;100.00;99382.84;2159444;82;20991;-84
2022/07/19 00:36:30;;;;;;;2.72;2.52;;;;;;;15.55;100.00;99371.83;2150202;82;21022;-85
2022/07/19 00:39:30;;;;;;;4.05;2.20;;;;;;;15.55;100.00;99373.66;2153323;82;21005;-85
2022/07/19 00:42:31;;;;;;;3.65;2.80;;;;;;;15.51;100.00;99386.41;2155846;82;21501;-86
2022/07/19 00:45:32;;;;;;;2.65;2.45;;;;;;;15.49;100.00;99386.30;2154534;82;21009;-86
2022/07/19 00:48:32;;;;;;;4.53;2.83;;;;;;;15.46;100.00;99383.55;2151266;82;21059;-86
2022/07/19 00:51:33;;;;;;;2.90;2.40;;;;;;;15.47;100.00;99384.36;2158551;82;21026;-86
2022/07/19 00:54:35;;;;;;;4.67;2.58;;;;;;;15.49;100.00;99383.66;2160607;82;21096;-86
2022/07/19 00:57:35;;;;;;;4.37;3.20;;;;;;;15.50;100.00;99386.09;2149998;82;21118;-85
2022/07/19 01:00:37;;;;;;;3.85;2.92;;;;;;;15.53;100.00;99385.70;2154000;82;21104;-85
2022/07/19 01:03:38;;;;;;;2.98;2.70;;;;;;;15.53;100.00;99392.30;2161197;82;21058;-85
2022/07/19 01:06:38;;;;;;;4.97;2.98;;;;;;;15.56;100.00;99382.69;2163139;82;21085;-85
2022/07/19 01:09:39;;;;;;;3.77;3.20;;;;;;;15.56;100.00;99381.37;2163212;82;20978;-86
2022/07/19 01:12:40;;;;;;;6.08;3.42;;;;;;;15.55;100.00;99376.30;2162893;82;21017;-85
2022/07/19 01:15:41;;;;;;;5.20;3.27;;;;;;;15.56;100.00;99375.28;2153237;81;21006;-85
2022/07/19 01:18:43;;;;;;;3.52;3.30;;;;;;;15.60;100.00;99379.14;2156961;82;22052;-85
2022/07/19 01:21:43;;;;;;;5.80;3.35;;;;;;;15.65;100.00;99386.02;2156851;81;21606;-85
2022/07/19 01:24:44;;;;;;;4.20;3.50;;;;;;;15.67;100.00;99385.31;2158907;82;21033;-85
2022/07/19 01:27:45;;;;;;;3.92;3.62;;;;;;;15.71;100.00;99383.08;2154489;82;21037;-85
2022/07/19 01:30:46;;;;;;;5.90;3.65;;;;;;;15.73;100.00;99380.58;2160792;82;21045;-85
2022/07/19 01:33:46;;;;;;;7.40;4.17;;;;;;;15.71;100.00;99383.89;2152570;82;21004;-85
2022/07/19 01:36:47;;;;;;;4.83;4.20;;;;;;;15.71;100.00;99379.12;2161322;82;20954;-85
2022/07/19 01:39:48;;;;;;;6.10;4.05;;;;;;;15.70;100.00;99378.30;2154079;82;21085;-86
2022/07/19 01:42:48;;;;;;;6.40;3.87;;;;;;;15.61;100.00;99372.88;2162223;82;20978;-85
2022/07/19 01:45:49;;;;;;;5.65;3.55;;;;;;;15.54;100.00;99373.31;2152344;82;21476;-85
2022/07/19 01:48:50;;;;;;;4.20;3.55;;;;;;;15.47;100.00;99370.66;2154304;82;21045;-85
2022/07/19 01:51:51;;;;;;;4.78;3.70;;;;;;;15.36;100.00;99377.31;2159712;82;21001;-85
2022/07/19 01:54:51;;;;;;;10.20;4.10;;;;;;;15.31;100.00;99374.92;2153975;82;20998;-85
2022/07/19 01:57:52;;;;;;;4.17;3.80;;;;;;;15.30;100.00;99371.98;2153992;81;21588;-85
2022/07/19 02:00:53;;;;;;;6.50;3.77;;;;;;;15.32;100.00;99380.00;2157730;82;21057;-85
2022/07/19 02:03:53;;;;;;;9.23;3.70;;;;;;;15.40;100.00;99379.55;2150146;82;21034;-85
2022/07/19 02:06:54;;;;;;;7.08;4.28;;;;;;;15.45;100.00;99382.40;2161626;82;21500;-85
2022/07/19 02:09:55;;;;;;;5.37;4.03;;;;;;;15.50;100.00;99380.00;2153139;81;21496;-85
2022/07/19 02:12:56;;;;;;;5.55;4.00;;;;;;;15.53;100.00;99384.88;2156159;81;21401;-86
2022/07/19 02:15:56;;;;;;;7.25;4.08;;;;;;;15.56;100.00;99385.33;2161732;82;21037;-86
2022/07/19 02:18:57;;;;;;;4.25;3.85;;;;;;;15.57;100.00;99382.19;2159669;82;21028;-86
2022/07/19 02:21:58;;;;;;;9.38;4.87;;;;;;;15.59;100.00;99386.25;2158849;82;21040;-85
2022/07/19 02:24:59;;;;;;;4.22;3.83;;;;;;;15.52;100.00;99387.22;2149883;81;21020;-86
2022/07/19 02:28:00;;;;;;;7.00;4.53;;;;;;;15.49;100.00;99383.16;2162048;82;21074;-86
2022/07/19 02:31:01;;;;;;;6.97;4.83;;;;;;;15.46;100.00;99384.88;2162976;82;21006;-86
2022/07/19 02:34:01;;;;;;;5.25;3.95;;;;;;;15.44;100.00;99382.09;2158662;82;21050;-86
2022/07/19 02:37:02;;;;;;;6.92;4.30;;;;;;;15.45;100.00;99384.53;2162881;81;21077;-85
2022/07/19 02:40:03;;;;;;;4.87;4.20;;;;;;;15.47;100.00;99378.58;2155406;82;21073;-85
2022/07/19 02:43:03;;;;;;;6.08;5.05;;;;;;;15.47;100.00;99378.58;2162535;82;21025;-86
2022/07/19 02:46:04;;;;;;;6.62;4.40;;;;;;;15.45;100.00;99364.74;2166188;81;21025;-86
2022/07/19 02:49:05;;;;;;;4.80;4.25;;;;;;;15.43;100.00;99361.48;2157647;82;21051;-85
2022/07/19 02:52:05;;;;;;;10.65;4.10;;;;;;;15.43;100.00;99359.36;2149298;82;21049;-85
2022/07/19 02:55:06;;;;;;;9.33;4.47;;;;;;;15.42;100.00;99367.78;2160422;81;21032;-86
2022/07/19 02:58:07;;;;;;;5.53;4.33;;;;;;;15.43;100.00;99362.81;2153330;82;21033;-85
2022/07/19 03:01:08;;;;;;;10.82;5.40;;;;;;;15.47;100.00;99361.42;2158901;82;21021;-85
2022/07/19 03:04:08;;;;;;;7.90;4.25;;;;;;;15.51;100.00;99361.84;2163070;81;21516;-85
2022/07/19 03:07:10;;;;;;;6.53;4.05;;;;;;;15.54;100.00;99359.61;2122146;82;22022;-85
2022/07/19 03:10:11;;;;;;;5.58;3.77;;;;;;;15.57;100.00;99365.84;2162006;82;21470;-85
2022/07/19 03:13:11;;;;;;;4.12;3.72;;;;;;;15.52;100.00;99364.78;2152033;82;21060;-85
2022/07/19 03:16:12;;;;;;;4.20;3.80;;;;;;;15.44;100.00;99374.98;2158555;82;21006;-84
2022/07/19 03:19:13;;;;;;;4.90;4.15;;;;;;;15.40;100.00;99376.41;2158610;82;21101;-85
2022/07/19 03:22:14;;;;;;;9.70;4.20;;;;;;;15.41;100.00;99384.63;2155990;82;21549;-85
2022/07/19 03:25:14;;;;;;;7.42;3.92;;;;;;;15.45;100.00;99379.77;2153743;82;21592;-85
2022/07/19 03:28:15;;;;;;;5.83;4.03;;;;;;;15.54;100.00;99378.09;2153986;82;21092;-84
2022/07/19 03:31:16;;;;;;;10.63;5.05;;;;;;;15.60;100.00;99378.67;2159168;82;21033;-84
2022/07/19 03:34:17;;;;;;;8.05;4.83;;;;;;;15.70;100.00;99384.09;2162928;82;21520;-84
2022/07/19 03:37:17;;;;;;;8.60;4.83;;;;;;;15.73;100.00;99387.68;2156967;82;20994;-84
2022/07/19 03:40:18;;;;;;;4.37;3.75;;;;;;;15.82;100.00;99388.63;2151823;82;21056;-84
2022/07/19 03:43:20;;;;;;;11.53;5.53;;;;;;;15.81;100.00;99392.26;2155829;82;21064;-85
2022/07/19 03:46:21;;;;;;;6.45;4.62;;;;;;;15.87;100.00;99399.91;2158910;81;21086;-86
2022/07/19 03:49:22;;;;;;;10.43;5.83;;;;;;;15.97;100.00;99400.35;2148512;82;21077;-85
2022/07/19 03:52:22;;;;;;;6.75;4.75;;;;;;;16.05;100.00;99400.19;2154743;82;21533;-84
2022/07/19 03:55:23;;;;;;;12.13;5.20;;;;;;;16.03;100.00;99396.94;2155372;82;21025;-85
2022/07/19 03:58:24;;;;;;;9.68;5.10;;;;;;;16.00;100.00;99396.50;2156630;82;21564;-85
2022/07/19 04:01:25;;;;;;;11.30;4.53;;;;;;;16.07;100.00;99407.91;2146018;82;21070;-85
2022/07/19 04:04:26;;;;;;;6.87;4.78;;;;;;;16.09;100.00;99404.55;2158773;82;20979;-85
2022/07/19 04:07:26;;;;;;;7.42;4.12;;;;;;;16.18;100.00;99407.33;2150846;82;21588;-85
2022/07/19 04:10:27;;;;;;;7.92;5.05;;;;;;;16.32;100.00;99405.55;2158255;82;21474;-85
2022/07/19 04:13:27;;;;;;;6.95;4.80;;;;;;;16.42;100.00;99402.83;2155603;82;21602;-85
2022/07/19 04:16:28;;;;;;;8.03;4.87;;;;;;;16.58;100.00;99400.83;2160107;82;21037;-85
2022/07/19 04:19:29;;;;;;;6.40;4.85;;;;;;;16.72;100.00;99400.66;2155869;82;21553;-85
2022/07/19 04:22:30;;;;;;;9.18;4.95;;;;;;;16.83;100.00;99396.61;2160747;82;21016;-85
2022/07/19 04:25:30;;;;;;;7.65;4.58;;;;;;;16.92;100.00;99392.75;2160225;82;21084;-85
2022/07/19 04:28:31;;;;;;;7.10;3.77;;;;;;;17.05;100.00;99389.27;2165167;81;20969;-84
2022/07/19 04:31:32;;;;;;;6.80;3.77;;;;;;;17.19;100.00;99393.55;2158478;82;21104;-85
2022/07/19 04:34:33;;;;;;;6.90;4.40;;;;;;;17.39;100.00;99386.08;2161250;82;21045;-85
2022/07/19 04:37:34;;;;;;;5.87;3.87;;;;;;;17.59;100.00;99387.64;2162898;82;21069;-85
2022/07/19 04:40:34;;;;;;;10.25;4.30;;;;;;;17.75;100.00;99385.08;2159201;82;21053;-85
2022/07/19 04:43:35;;;;;;;9.38;4.70;;;;;;;17.95;100.00;99392.13;2149643;82;20993;-85
2022/07/19 04:46:36;;;;;;;6.70;4.95;;;;;;;18.19;100.00;99389.55;2161925;82;21017;-85
2022/07/19 04:49:37;;;;;;;5.60;5.10;;;;;;;18.50;100.00;99394.58;2157423;82;21018;-85
2022/07/19 04:52:37;;;;;;;7.55;4.78;;;;;;;18.81;100.00;99399.58;2152502;82;21043;-85
2022/07/19 04:55:38;;;;;;;7.17;4.37;;;;;;;19.05;100.00;99398.78;2160397;82;21037;-85
2022/07/19 04:58:39;;;;;;;5.92;4.08;;;;;;;19.24;100.00;99392.99;2155422;82;21010;-85
2022/07/19 05:01:40;;;;;;;6.17;4.37;;;;;;;19.31;100.00;99393.23;2178926;81;21172;-85
2022/07/19 05:04:40;;;;;;;6.33;3.95;;;;;;;19.41;100.00;99395.89;2171658;81;20986;-84
2022/07/19 05:07:41;;;;;;;9.40;5.03;;;;;;;19.53;100.00;99393.60;2163087;82;20962;-84
2022/07/19 05:10:42;;;;;;;10.43;4.78;;;;;;;19.68;100.00;99393.80;2158748;82;21018;-85
2022/07/19 05:13:43;;;;;;;14.55;4.90;;;;;;;19.85;100.00;99390.83;2162461;81;21018;-85
2022/07/19 05:16:43;;;;;;;9.50;4.33;;;;;;;20.04;100.00;99400.41;2151967;82;21028;-85
2022/07/19 05:19:44;;;;;;;14.35;7.12;;;;;;;20.21;100.00;99397.09;2156755;82;21555;-85
2022/07/19 05:22:45;;;;;;;19.82;11.50;;;;;;;20.39;100.00;99394.39;2162943;82;21052;-85
2022/07/19 05:25:45;;;;;;;17.77;11.70;;;;;;;20.60;100.00;99390.45;2159309;82;21005;-85
2022/07/19 05:28:46;;;;;;;41.75;27.10;;;;;;;20.83;97.45;99390.99;2159052;82;21044;-85
2022/07/19 05:31:47;;;;;;;64.55;38.88;;;;;;;21.02;92.69;99393.31;2154915;82;20978;-85
2022/07/19 05:34:48;;;;;;;37.90;25.00;;;;;;;21.32;91.83;99388.98;2157464;82;21034;-85
2022/07/19 05:37:48;;;;;;;31.82;20.40;;;;;;;21.60;87.97;99386.38;2155075;82;21089;-85
2022/07/19 05:40:49;;;;;;;24.67;15.48;;;;;;;22.06;85.35;99384.11;2157423;82;21010;-84
2022/07/19 05:43:50;;;;;;;15.40;10.95;;;;;;;22.49;81.36;99385.95;2154236;82;21037;-84
2022/07/19 05:46:51;;;;;;;14.03;7.80;;;;;;;22.59;78.86;99389.63;2158829;82;20989;-85
2022/07/19 05:49:51;;;;;;;11.50;7.78;;;;;;;22.82;77.30;99387.31;2154533;82;20998;-84
2022/07/19 05:52:52;;;;;;;9.98;7.22;;;;;;;22.91;75.18;99385.08;2152188;82;21210;-85
2022/07/19 05:55:53;;;;;;;10.28;5.83;;;;;;;23.21;73.18;99382.05;2154977;82;21087;-85
2022/07/19 05:58:54;;;;;;;8.58;5.22;;;;;;;23.44;71.33;99388.53;2156182;82;21133;-85
2022/07/19 06:01:55;;;;;;;8.35;5.03;;;;;;;23.66;69.00;99387.75;2156412;82;21074;-84
2022/07/19 06:04:55;;;;;;;9.20;6.28;;;;;;;23.80;66.35;99383.66;2157558;82;20991;-84
2022/07/19 06:07:56;;;;;;;5.78;4.65;;;;;;;23.94;67.49;99387.55;2153145;82;21061;-85
2022/07/19 06:10:57;;;;;;;8.30;4.72;;;;;;;24.29;65.89;99389.00;2157723;82;21501;-85
2022/07/19 06:13:58;;;;;;;9.35;5.50;;;;;;;24.45;62.04;99384.64;2166165;81;21085;-85
2022/07/19 06:16:59;;;;;;;9.40;5.62;;;;;;;24.61;63.03;99385.06;2162949;82;21088;-85
2022/07/19 06:19:59;;;;;;;11.35;9.45;;;;;;;24.85;61.60;99379.61;2152113;82;21113;-84
2022/07/19 06:23:00;;;;;;;8.23;5.47;;;;;;;25.06;61.75;99381.95;2153195;82;21540;-85
2022/07/19 06:26:01;;;;;;;8.65;4.60;;;;;;;25.31;60.67;99387.17;2158628;82;21081;-86
2022/07/19 06:29:02;;;;;;;6.65;4.33;;;;;;;25.78;59.08;99381.25;2157564;82;21053;-86
2022/07/19 06:32:03;;;;;;;5.22;4.72;;;;;;;26.09;57.97;99380.03;2156593;81;21528;-85
2022/07/19 06:35:04;;;;;;;6.35;4.58;;;;;;;26.34;55.55;99384.64;2148499;82;21092;-84
2022/07/19 06:38:04;;;;;;;7.80;4.42;;;;;;;26.40;55.58;99388.16;2162564;81;21544;-88
2022/07/19 06:41:05;;;;;;;8.15;5.20;;;;;;;26.36;54.51;99384.64;2162925;82;20982;-84
2022/07/19 06:44:06;;;;;;;5.87;4.28;;;;;;;26.41;54.58;99385.73;2159083;82;21080;-84
2022/07/19 06:47:07;;;;;;;7.53;4.92;;;;;;;26.53;53.56;99393.02;2162931;82;20966;-82
2022/07/19 06:50:08;;;;;;;5.87;4.50;;;;;;;26.65;52.89;99390.33;2157697;82;21600;-83
2022/07/19 06:53:09;;;;;;;7.47;4.05;;;;;;;26.77;52.16;99390.05;2159603;82;21065;-86
2022/07/19 06:56:10;;;;;;;6.15;4.58;;;;;;;26.92;51.81;99389.25;2155872;82;21192;-85
2022/07/19 06:59:11;;;;;;;6.70;4.62;;;;;;;26.98;50.78;99386.83;2161936;82;21512;-86
2022/07/19 07:02:11;;;;;;;7.20;4.10;;;;;;;27.03;50.99;99389.53;2159249;82;20983;-86
2022/07/19 07:05:12;;;;;;;12.40;4.75;;;;;;;27.05;49.65;99387.37;2158058;81;21075;-86
2022/07/19 07:08:13;;;;;;;7.20;4.67;;;;;;;27.03;50.11;99386.84;2163077;82;21541;-86
2022/07/19 07:11:14;;;;;;;4.58;3.95;;;;;;;26.93;49.58;99383.59;2154866;82;21014;-85
2022/07/19 07:14:15;;;;;;;6.95;3.55;;;;;;;26.81;49.70;99377.70;2158069;82;21045;-87
2022/07/19 07:17:15;;;;;;;6.75;3.80;;;;;;;26.77;49.87;99378.50;2162881;82;20965;-86
2022/07/19 07:20:16;;;;;;;7.97;3.77;;;;;;;26.74;49.88;99381.20;2151053;82;21125;-86
2022/07/19 07:23:19;;;;;;;7.40;3.77;;;;;;;26.78;49.50;99376.88;2154771;82;21572;-86
2022/07/19 07:26:19;;;;;;;4.97;2.92;;;;;;;26.84;49.19;99379.05;2158959;82;21595;-85
2022/07/19 07:29:20;;;;;;;6.67;3.58;;;;;;;26.88;48.52;99384.13;2162443;82;21041;-86
2022/07/19 07:32:21;;;;;;;5.17;4.67;;;;;;;26.91;48.90;99384.95;2163070;82;20939;-86
2022/07/19 07:35:22;;;;;;;7.37;4.53;;;;;;;27.00;48.77;99383.33;2159200;82;21017;-86
2022/07/19 07:38:22;;;;;;;5.60;3.77;;;;;;;27.04;48.49;99378.23;2157073;82;21565;-86
2022/07/19 07:41:23;;;;;;;6.35;3.47;;;;;;;27.22;47.96;99383.04;2163062;81;21033;-83
2022/07/19 07:44:24;;;;;;;7.78;5.37;;;;;;;27.37;48.55;99383.55;2153939;82;21088;-87
2022/07/19 07:47:25;;;;;;;8.18;4.83;;;;;;;27.50;47.85;99393.17;2159947;82;20977;-89
2022/07/19 07:50:25;;;;;;;6.65;3.85;;;;;;;27.61;47.22;99390.45;2160069;82;20998;-89
2022/07/19 07:53:26;;;;;;;5.92;4.75;;;;;;;27.68;47.25;99395.83;2164647;81;21164;-88
2022/07/19 07:56:27;;;;;;;4.37;3.02;;;;;;;27.68;47.11;99398.52;2156838;82;20990;-88
2022/07/19 07:59:28;;;;;;;4.30;3.58;;;;;;;27.59;46.94;99391.27;2149805;82;21057;-92
2022/07/19 08:02:28;;;;;;;5.62;4.40;;;;;;;27.54;46.94;99396.69;2150360;82;21085;-90
2022/07/19 08:05:29;;;;;;;6.00;3.90;;;;;;;27.46;47.26;99392.67;2164105;82;20974;-89
2022/07/19 08:08:36;;;;;;;4.45;3.52;;;;;;;27.40;47.06;99396.44;2166750;81;21596;-89
2022/07/19 08:11:36;;;;;;;5.83;3.55;;;;;;;27.36;46.98;99398.08;2146912;82;21507;-90
2022/07/19 08:14:36;;;;;;;4.62;3.10;;;;;;;27.26;46.03;99392.73;2158749;82;21065;-84
2022/07/19 08:20:44;;;;;;;3.27;2.37;;;;;;;27.32;46.07;99392.42;2076682;85;21553;-84
2022/07/19 08:23:49;;;;;;;4.92;2.72;;;;;;;27.43;44.92;99391.85;2071475;85;21121;-84
2022/07/19 08:26:49;;;;;;;2.98;2.77;;;;;;;27.54;43.11;99397.48;2063793;85;21065;-85
2022/07/19 08:29:50;;;;;;;5.70;3.05;;;;;;;27.47;43.56;99393.73;2059200;86;21053;-84
2022/07/19 08:32:51;;;;;;;3.80;2.98;;;;;;;27.43;42.92;99391.85;2067340;85;21018;-84
2022/07/19 08:35:52;;;;;;;3.42;2.87;;;;;;;27.47;43.95;99383.52;2062779;86;21073;-85
2022/07/19 08:38:53;;;;;;;3.65;2.17;;;;;;;27.53;43.69;99381.09;2070283;85;21249;-84
2022/07/19 08:41:53;;;;;;;3.22;2.92;;;;;;;27.46;43.06;99388.09;2070489;85;21147;-85
2022/07/19 08:44:54;;;;;;;17.87;3.35;;;;;;;27.46;43.67;99384.60;2062013;85;21113;-84
2022/07/19 08:47:55;;;;;;;3.40;2.55;;;;;;;27.53;43.38;99385.13;2088092;85;21117;-86
2022/07/19 08:50:56;;;;;;;2.72;2.30;;;;;;;27.58;42.57;99382.94;2059103;85;21065;-85
2022/07/19 08:53:57;;;;;;;4.65;2.65;;;;;;;27.53;41.56;99386.47;2090152;85;21165;-84
2022/07/19 09:00:17;;;;;;;4.65;2.70;;;;;;;27.52;41.75;99380.80;2077157;85;21104;-81
2022/07/19 09:03:17;;;;;;;2.62;2.42;;;;;;;27.52;42.24;99374.07;2085465;85;21006;-83
2022/07/19 09:06:18;;;;;;;3.52;2.83;;;;;;;27.55;41.59;99378.12;2084732;85;21025;-83
2022/07/19 09:09:19;;;;;;;6.50;3.05;;;;;;;27.46;41.02;99375.19;2050795;86;20984;-83
2022/07/19 09:12:20;;;;;;;12.55;3.60;;;;;;;27.42;41.49;99374.91;2043253;86;21571;-84
2022/07/19 09:15:20;;;;;;;7.55;3.47;;;;;;;27.41;41.52;99371.16;2077719;85;21070;-83
2022/07/19 09:18:21;;;;;;;3.45;2.67;;;;;;;27.36;40.91;99372.00;2132534;82;21041;-84
2022/07/19 09:21:22;;;;;;;6.72;2.90;;;;;;;27.36;40.53;99372.54;2159086;81;21032;-84
2022/07/19 09:24:23;;;;;;;13.20;5.97;;;;;;;27.38;41.13;99368.48;2165038;81;21022;-83
2022/07/19 09:27:25;;;;;;;6.45;3.52;;;;;;;27.44;41.46;99365.25;2155770;82;21021;-85
2022/07/19 09:30:26;;;;;;;7.33;3.05;;;;;;;27.49;38.14;99363.88;2166376;81;21568;-85
2022/07/19 09:33:27;;;;;;;6.53;3.02;;;;;;;27.41;39.40;99362.55;2154375;81;21084;-85
2022/07/19 09:36:28;;;;;;;5.47;2.87;;;;;;;27.36;39.52;99362.59;2160492;82;21069;-85
2022/07/19 09:39:29;;;;;;;3.05;2.40;;;;;;;27.31;40.40;99365.28;2150873;82;21088;-85
2022/07/19 09:42:29;;;;;;;6.42;3.30;;;;;;;27.35;40.39;99357.48;2162716;82;21601;-85
2022/07/19 09:45:32;;;;;;;9.88;2.67;;;;;;;27.50;40.65;99358.76;2157733;81;21532;-88
2022/07/19 09:48:32;;;;;;;2.40;2.20;;;;;;;27.67;40.23;99353.08;2156987;82;21609;-84
2022/07/19 09:51:33;;;;;;;2.80;2.45;;;;;;;27.75;37.34;99350.62;2158845;82;21005;-85
2022/07/19 09:54:34;;;;;;;5.25;2.80;;;;;;;27.75;36.92;99348.47;2158553;82;21061;-86
2022/07/19 09:57:35;;;;;;;3.05;2.02;;;;;;;27.74;39.34;99342.83;2158178;82;21053;-86
2022/07/19 10:00:35;;;;;;;2.72;2.08;;;;;;;27.75;38.34;99345.78;2162937;82;20998;-86
2022/07/19 10:03:36;;;;;;;2.37;2.17;;;;;;;27.69;38.44;99342.84;2158518;81;21017;-85
2022/07/19 10:06:37;;;;;;;2.83;2.47;;;;;;;27.66;38.86;99347.44;2155956;81;21006;-86
2022/07/19 10:09:38;;;;;;;4.78;2.83;;;;;;;27.66;39.45;99348.24;2151156;82;22223;-86
2022/07/19 10:12:38;;;;;;;2.85;2.37;;;;;;;27.71;39.38;99340.16;2159934;82;21029;-85
2022/07/19 10:15:39;;;;;;;3.67;2.20;;;;;;;27.72;39.22;99344.45;2161283;82;21010;-86
2022/07/19 10:18:40;;;;;;;5.35;2.95;;;;;;;27.75;39.50;99330.44;2159420;82;21746;-88
2022/07/19 10:21:41;;;;;;;8.25;3.55;;;;;;;27.83;40.40;99337.13;2152434;82;21024;-85
2022/07/19 10:24:42;;;;;;;3.55;2.20;;;;;;;27.88;39.81;99334.39;2160769;82;21039;-86
2022/07/19 10:27:43;;;;;;;4.10;2.27;;;;;;;27.92;39.82;99336.01;2160785;82;21561;-84
2022/07/19 10:30:43;;;;;;;4.97;2.52;;;;;;;27.90;39.42;99333.60;2154255;82;21016;-85
2022/07/19 10:33:44;;;;;;;3.25;2.92;;;;;;;27.85;39.52;99327.44;2173266;81;21594;-85
2022/07/19 10:36:46;;;;;;;3.35;2.52;;;;;;;27.83;39.23;99322.33;2155812;81;21155;-87
2022/07/19 10:39:47;;;;;;;5.28;2.70;;;;;;;27.79;36.95;99315.88;2161651;82;21552;-84
2022/07/19 10:42:48;;;;;;;2.47;2.27;;;;;;;27.73;37.01;99321.85;2159062;82;21009;-84
2022/07/19 10:45:49;;;;;;;6.78;2.33;;;;;;;27.70;37.27;99326.42;2154688;82;21120;-86
2022/07/19 10:48:50;;;;;;;2.50;2.30;;;;;;;27.69;36.05;99328.05;2156861;82;22087;-87
2022/07/19 10:51:50;;;;;;;2.92;2.02;;;;;;;27.69;37.08;99324.81;2151854;81;21043;-88
2022/07/19 10:54:51;;;;;;;2.40;2.20;;;;;;;27.69;36.37;99324.02;2163140;82;20988;-87
2022/07/19 10:57:52;;;;;;;5.42;2.40;;;;;;;27.67;36.52;99325.64;2152204;82;21010;-88
2022/07/19 11:00:52;;;;;;;2.65;2.45;;;;;;;27.67;36.60;99324.83;2162196;82;21042;-89
2022/07/19 11:03:53;;;;;;;10.28;3.60;;;;;;;27.71;36.68;99324.02;2156718;82;20996;-89
2022/07/19 11:06:54;;;;;;;3.35;2.50;;;;;;;27.71;35.93;99328.59;2154076;81;21134;-89
2022/07/19 11:09:55;;;;;;;3.42;2.52;;;;;;;27.68;36.49;99317.03;2154009;82;20970;-87
2022/07/19 11:12:56;;;;;;;5.53;2.87;;;;;;;27.73;37.38;99311.63;2155550;82;21597;-86
2022/07/19 11:15:57;;;;;;;6.75;2.87;;;;;;;27.81;37.31;99317.78;2153303;81;21042;-86
2022/07/19 11:18:57;;;;;;;2.30;2.08;;;;;;;27.85;36.33;99312.63;2157362;82;21098;-87
2022/07/19 11:21:58;;;;;;;3.35;2.42;;;;;;;27.88;36.85;99305.34;2157827;82;21061;-87
2022/07/19 11:25:02;;;;;;;4.60;2.45;;;;;;;27.93;37.05;99304.78;2155149;82;20973;-88
2022/07/19 11:28:02;;;;;;;4.75;2.40;;;;;;;27.97;37.24;99296.94;2156677;82;21062;-87
2022/07/19 11:31:02;;;;;;;3.65;2.65;;;;;;;27.96;36.49;99304.21;2159060;82;21057;-87
2022/07/19 11:34:03;;;;;;;5.05;2.20;;;;;;;27.94;36.31;99296.97;2154857;81;21085;-87
2022/07/19 11:37:04;;;;;;;2.92;2.50;;;;;;;27.91;36.74;99294.84;2159988;81;21336;-88
2022/07/19 11:40:05;;;;;;;3.35;2.42;;;;;;;27.91;36.15;99293.50;2178373;81;21007;-88
2022/07/19 11:43:05;;;;;;;5.70;2.55;;;;;;;27.95;37.55;99291.84;2156203;82;21489;-88
2022/07/19 11:46:06;;;;;;;3.52;2.27;;;;;;;27.95;37.55;99291.84;2161495;82;21556;-87
2022/07/19 11:49:07;;;;;;;2.70;2.50;;;;;;;27.95;37.17;99283.77;2162774;82;20974;-87
2022/07/19 11:52:08;;;;;;;3.83;2.37;;;;;;;27.95;36.92;99288.35;2159507;81;21072;-85
2022/07/19 11:55:08;;;;;;;4.20;3.45;;;;;;;27.94;37.48;99282.17;2169223;81;21005;-88
2022/07/19 11:58:10;;;;;;;6.00;3.85;;;;;;;27.96;37.09;99280.53;2154165;81;21512;-84
2022/07/19 12:01:10;;;;;;;5.10;3.98;;;;;;;28.00;37.52;99274.88;2153751;82;21103;-88
2022/07/19 12:04:15;;;;;;;3.80;3.40;;;;;;;28.01;37.26;99271.09;2158463;82;20990;-87
2022/07/19 12:07:16;;;;;;;3.52;2.95;;;;;;;28.03;36.39;99268.92;2143043;82;21062;-89
2022/07/19 12:10:16;;;;;;;7.50;4.25;;;;;;;28.04;36.86;99261.91;2149668;82;21036;-87
2022/07/19 12:13:17;;;;;;;4.15;2.72;;;;;;;28.02;36.52;99265.97;2157892;82;20995;-91
2022/07/19 12:16:18;;;;;;;3.95;2.83;;;;;;;27.98;36.15;99275.16;2163239;82;21041;-87
2022/07/19 12:19:20;;;;;;;7.03;4.47;;;;;;;28.03;36.05;99268.38;2157899;82;21097;-90
2022/07/19 12:22:21;;;;;;;8.95;6.72;;;;;;;28.07;36.67;99259.19;2154512;82;21093;-90
2022/07/19 12:25:21;;;;;;;9.83;4.67;;;;;;;28.09;36.39;99264.31;2161229;82;20966;-86
2022/07/19 12:28:22;;;;;;;3.02;2.80;;;;;;;28.07;36.40;99261.87;2162956;82;21532;-87
2022/07/19 12:31:23;;;;;;;6.50;3.27;;;;;;;28.06;34.90;99258.38;2166759;81;21029;-89
2022/07/19 12:34:24;;;;;;;6.45;3.08;;;;;;;28.10;35.80;99261.34;2156109;82;22147;-86
2022/07/19 12:37:24;;;;;;;4.70;3.62;;;;;;;28.11;36.39;99250.83;2162417;82;21049;-88
2022/07/19 12:40:25;;;;;;;3.40;2.80;;;;;;;28.11;36.52;99248.68;2161497;82;21073;-87
2022/07/19 12:43:26;;;;;;;3.87;2.70;;;;;;;28.12;36.70;99244.91;2154057;82;21077;-87
2022/07/19 12:46:27;;;;;;;3.98;3.08;;;;;;;28.14;36.22;99244.07;2145163;82;21033;-87
2022/07/19 12:49:27;;;;;;;4.40;2.52;;;;;;;28.16;36.29;99246.73;2156587;82;21034;-84
2022/07/19 12:52:28;;;;;;;4.58;2.65;;;;;;;28.18;35.62;99246.48;2162223;82;21045;-83
2022/07/19 12:55:29;;;;;;;4.45;2.87;;;;;;;28.22;36.00;99242.92;2153171;82;21053;-84
2022/07/19 13:01:49;;;;;;;3.05;2.85;;;;;;;28.29;35.54;99238.59;2154870;82;21124;-85
2022/07/19 13:04:50;;;;;;;3.72;2.00;;;;;;;28.32;35.51;99231.29;2145995;82;21061;-87
2022/07/19 13:07:50;;;;;;;3.05;2.75;;;;;;;28.34;35.05;99229.11;2156357;82;21060;-88
2022/07/19 13:10:51;;;;;;;3.65;2.87;;;;;;;28.34;35.76;99223.73;2156560;82;21037;-88
2022/07/19 13:13:52;;;;;;;3.27;2.77;;;;;;;28.30;35.44;99222.70;2165736;82;20992;-86
2022/07/19 13:16:53;;;;;;;5.53;3.25;;;;;;;28.24;35.53;99219.75;2161334;82;21101;-87
2022/07/19 13:19:53;;;;;;;3.87;2.47;;;;;;;28.24;35.86;99218.41;2152585;82;21578;-88
2022/07/19 13:22:54;;;;;;;4.97;2.58;;;;;;;28.27;35.91;99220.01;2157180;81;21093;-86
2022/07/19 13:25:55;;;;;;;3.58;2.27;;;;;;;28.30;36.16;99212.73;2147214;82;21057;-86
2022/07/19 13:28:56;;;;;;;2.65;2.05;;;;;;;28.33;34.30;99211.35;2133738;82;20977;-88
2022/07/19 13:31:58;;;;;;;3.42;2.83;;;;;;;28.44;34.47;99215.58;2161379;82;21036;-86
2022/07/19 13:34:58;;;;;;;3.65;2.50;;;;;;;28.50;35.42;99215.77;2157211;82;21099;-88
2022/07/19 13:38:00;;;;;;;4.05;3.20;;;;;;;28.51;35.47;99211.98;2149991;81;20963;-86
2022/07/19 13:41:00;;;;;;;2.42;2.27;;;;;;;28.57;35.33;99206.81;2136726;82;21547;-88
2022/07/19 13:44:01;;;;;;;3.22;2.40;;;;;;;28.64;35.01;99202.44;2123552;82;21001;-88
2022/07/19 13:47:02;;;;;;;3.12;2.37;;;;;;;28.72;35.08;99204.51;2137265;82;21655;-87
2022/07/19 13:50:03;;;;;;;2.25;2.12;;;;;;;28.77;35.25;99199.59;2154734;82;21017;-86
2022/07/19 13:53:03;;;;;;;4.58;3.08;;;;;;;28.80;35.49;99190.92;2126179;82;21006;-86
2022/07/19 13:59:07;;;;;;;2.70;2.50;;;;;;;28.89;35.44;99187.88;2028099;86;21150;-87
2022/07/19 14:02:07;;;;;;;5.10;2.75;;;;;;;28.90;34.99;99181.42;2067534;85;21049;-86
2022/07/19 14:05:08;;;;;;;5.50;2.25;;;;;;;28.96;35.08;99176.76;2038186;86;21087;-83
2022/07/19 14:08:09;;;;;;;6.85;2.90;;;;;;;28.97;35.13;99179.70;2070060;85;20993;-87
2022/07/19 14:11:10;;;;;;;5.40;2.72;;;;;;;28.94;35.27;99171.66;2037273;87;21090;-89
2022/07/19 14:14:11;;;;;;;4.17;2.52;;;;;;;28.93;35.24;99178.14;2072525;85;21049;-86
2022/07/19 14:17:11;;;;;;;2.67;2.47;;;;;;;28.92;35.04;99176.55;2080395;86;21030;-86